createdAt,value
2023-01-11T00:04:30.602Z,7.93
2023-01-11T00:14:35.028Z,8.08
2023-01-11T00:24:38.022Z,8.11
2023-01-11T00:34:42.604Z,8.25
2023-01-11T00:45:03.056Z,8.26
2023-01-11T00:55:09.167Z,8.09
2023-01-11T01:05:12.474Z,8.18
2023-01-11T01:15:16.756Z,8.17
2023-01-11T01:25:19.982Z,8.25
2023-01-11T01:35:24.373Z,8.34
2023-01-11T01:45:29.002Z,8.41
2023-01-11T01:55:37.967Z,8.45
2023-01-11T02:05:41.172Z,8.49
2023-01-11T02:15:45.636Z,8.63
2023-01-11T02:26:11.540Z,8.70
2023-01-11T02:36:24.704Z,8.70
2023-01-11T02:46:34.086Z,8.70
2023-01-11T02:56:41.378Z,8.91
2023-01-11T03:06:44.870Z,9.04
2023-01-11T03:16:56.143Z,9.38
2023-01-11T03:27:12.186Z,9.43
2023-01-11T03:37:22.007Z,9.50
2023-01-11T03:47:29.369Z,9.52
2023-01-11T03:57:37.323Z,9.62
2023-01-11T04:07:40.499Z,9.68
2023-01-11T04:17:45.279Z,9.76
2023-01-11T04:27:48.215Z,9.90
2023-01-11T04:37:55.931Z,9.96
2023-01-11T04:47:59.276Z,9.78
2023-01-11T04:58:03.677Z,9.66
2023-01-11T05:08:07.368Z,9.60
2023-01-11T05:18:11.882Z,9.77
2023-01-11T05:28:15.083Z,9.84
2023-01-11T05:38:19.685Z,9.73
2023-01-11T05:48:23.010Z,9.76
2023-01-11T05:58:28.306Z,9.94
2023-01-11T06:08:31.407Z,9.91
2023-01-11T06:18:38.021Z,10.00
2023-01-11T06:28:41.377Z,10.08
2023-01-11T06:38:45.886Z,10.01
2023-01-11T06:48:49.628Z,10.16
2023-01-11T06:58:53.961Z,10.18
2023-01-11T07:08:57.528Z,10.15
2023-01-11T07:19:01.971Z,10.18
2023-01-11T07:29:05.402Z,10.13
2023-01-11T07:39:10.328Z,10.17
2023-01-11T07:49:13.656Z,10.11
2023-01-11T07:59:20.340Z,10.17
2023-01-11T08:09:23.478Z,10.16
2023-01-11T08:19:28.123Z,10.12
2023-01-11T08:29:31.550Z,10.07
2023-01-11T08:39:36.220Z,10.03
2023-01-11T08:49:43.217Z,10.05
2023-01-11T08:59:47.633Z,10.12
2023-01-11T09:09:52.426Z,10.08
2023-01-11T09:19:56.794Z,10.05
2023-01-11T09:30:01.569Z,10.04
2023-01-11T09:40:07.372Z,9.98
2023-01-11T09:50:18.995Z,10.25
2023-01-11T10:00:33.684Z,10.15
2023-01-11T10:21:18.373Z,10.11
2023-01-11T10:31:47.769Z,10.11
2023-01-11T10:42:01.685Z,9.88
2023-01-11T10:52:16.528Z,9.81
2023-01-11T11:02:48.106Z,9.84
2023-01-11T11:13:02.873Z,9.85
2023-01-11T11:23:08.365Z,9.86
2023-01-11T11:33:21.339Z,9.91
2023-01-11T11:43:27.516Z,9.88
2023-01-11T11:53:46.768Z,9.90
2023-01-11T12:03:53.567Z,9.85
2023-01-11T12:14:03.883Z,9.77
2023-01-11T12:24:19.194Z,9.69
2023-01-11T12:34:41.402Z,9.57
2023-01-11T12:44:58.521Z,9.55
2023-01-11T12:55:15.370Z,9.41
2023-01-11T13:05:26.519Z,9.30
2023-01-11T13:15:42.533Z,9.32
2023-01-11T13:25:52.509Z,9.40
2023-01-11T13:36:09.737Z,9.38
2023-01-11T13:46:26.289Z,9.60
2023-01-11T13:56:33.143Z,9.67
2023-01-11T14:06:53.592Z,9.62
2023-01-11T14:17:25.492Z,9.58
2023-01-11T14:28:11.804Z,9.46
2023-01-11T14:38:36.106Z,9.47
2023-01-11T14:48:49.642Z,9.43
2023-01-11T14:59:06.420Z,9.40
2023-01-11T15:09:47.392Z,9.37
2023-01-11T15:19:53.275Z,9.36
2023-01-11T15:29:59.280Z,9.23
2023-01-11T15:40:06.270Z,9.13
2023-01-11T15:50:36.331Z,9.00
2023-01-11T16:01:15.934Z,8.97
2023-01-11T16:11:28.123Z,8.93
2023-01-11T16:21:35.128Z,8.82
2023-01-11T16:31:57.074Z,8.68
2023-01-11T16:42:06.126Z,8.64
2023-01-11T16:52:38.959Z,8.62
2023-01-11T17:02:44.293Z,8.65
2023-01-11T17:13:35.697Z,8.53
2023-01-11T17:23:46.790Z,8.49
2023-01-11T17:34:04.472Z,8.37
2023-01-11T17:44:28.320Z,8.21
2023-01-11T17:54:33.392Z,8.33
2023-01-11T18:04:36.376Z,8.33
2023-01-11T18:14:47.659Z,8.17
2023-01-11T18:24:55.150Z,8.14
2023-01-11T18:35:00.802Z,8.15
2023-01-11T18:45:04.283Z,8.11
2023-01-11T18:55:12.617Z,8.14
2023-01-11T19:05:19.319Z,8.17
2023-01-11T19:15:24.079Z,8.12
2023-01-11T19:25:28.917Z,8.14
2023-01-11T19:35:33.363Z,8.15
2023-01-11T19:45:36.904Z,8.08
2023-01-11T19:55:41.464Z,8.08
2023-01-11T20:05:44.456Z,8.11
2023-01-11T20:15:49.116Z,8.14
2023-01-11T20:25:58.566Z,8.72
2023-01-11T20:36:10.221Z,8.23
2023-01-11T20:46:13.421Z,8.23
2023-01-11T20:56:18.817Z,8.28
2023-01-11T21:06:22.292Z,8.35
2023-01-11T21:16:28.657Z,8.41
2023-01-11T21:26:33.522Z,8.51
2023-01-11T21:36:38.693Z,8.65
2023-01-11T21:46:42.397Z,8.67
2023-01-11T21:56:48.454Z,8.76
2023-01-11T22:06:54.496Z,8.90
2023-01-11T22:16:59.502Z,8.99
2023-01-11T22:27:02.600Z,9.03
2023-01-11T22:37:07.309Z,9.05
2023-01-11T22:47:10.334Z,9.09
2023-01-11T22:57:14.949Z,9.09
2023-01-11T23:07:18.045Z,9.17
2023-01-11T23:17:22.359Z,9.15
2023-01-11T23:27:26.265Z,9.18
2023-01-11T23:37:30.746Z,9.27
2023-01-11T23:47:33.858Z,9.28
2023-01-11T23:57:58.296Z,9.35
